sensor_id;sensor_type;location;lat;lon;timestamp;P1;durP1;ratioP1;P2;durP2;ratioP2
7340;SDS011;6870;50.944;6.932;2023-07-20T00:01:31;6.37;;;2.80;;
7340;SDS011;6870;50.944;6.932;2023-07-20T00:03:59;6.23;;;2.87;;
7340;SDS011;6870;50.944;6.932;2023-07-20T00:06:27;5.80;;;2.90;;
7340;SDS011;6870;50.944;6.932;2023-07-20T00:08:56;8.80;;;2.70;;
7340;SDS011;6870;50.944;6.932;2023-07-20T00:11:26;7.60;;;3.00;;
7340;SDS011;6870;50.944;6.932;2023-07-20T00:13:54;7.00;;;2.83;;
7340;SDS011;6870;50.944;6.932;2023-07-20T00:16:22;8.90;;;2.67;;
7340;SDS011;6870;50.944;6.932;2023-07-20T00:18:51;8.30;;;2.73;;
7340;SDS011;6870;50.944;6.932;2023-07-20T00:21:19;12.03;;;3.07;;
7340;SDS011;6870;50.944;6.932;2023-07-20T00:23:47;5.83;;;2.70;;
7340;SDS011;6870;50.944;6.932;2023-07-20T00:26:17;7.23;;;3.03;;
7340;SDS011;6870;50.944;6.932;2023-07-20T00:28:45;7.10;;;3.20;;
7340;SDS011;6870;50.944;6.932;2023-07-20T00:31:13;7.73;;;2.90;;
7340;SDS011;6870;50.944;6.932;2023-07-20T00:33:41;7.33;;;3.40;;
7340;SDS011;6870;50.944;6.932;2023-07-20T00:36:09;8.37;;;3.00;;
7340;SDS011;6870;50.944;6.932;2023-07-20T00:38:37;7.17;;;3.03;;
7340;SDS011;6870;50.944;6.932;2023-07-20T00:41:05;11.30;;;3.20;;
7340;SDS011;6870;50.944;6.932;2023-07-20T00:43:35;3.40;;;2.40;;
7340;SDS011;6870;50.944;6.932;2023-07-20T00:46:03;4.40;;;2.77;;
7340;SDS011;6870;50.944;6.932;2023-07-20T00:48:31;4.60;;;2.80;;
7340;SDS011;6870;50.944;6.932;2023-07-20T00:50:59;7.40;;;3.27;;
7340;SDS011;6870;50.944;6.932;2023-07-20T00:53:29;3.50;;;2.60;;
7340;SDS011;6870;50.944;6.932;2023-07-20T00:55:57;5.77;;;2.70;;
7340;SDS011;6870;50.944;6.932;2023-07-20T00:58:25;4.30;;;2.60;;
7340;SDS011;6870;50.944;6.932;2023-07-20T01:00:56;7.37;;;3.17;;
7340;SDS011;6870;50.944;6.932;2023-07-20T01:03:24;5.30;;;2.70;;
7340;SDS011;6870;50.944;6.932;2023-07-20T01:05:54;5.27;;;3.20;;
7340;SDS011;6870;50.944;6.932;2023-07-20T01:08:40;4.27;;;2.60;;
7340;SDS011;6870;50.944;6.932;2023-07-20T01:11:16;8.03;;;2.70;;
7340;SDS011;6870;50.944;6.932;2023-07-20T01:13:49;5.83;;;2.80;;
7340;SDS011;6870;50.944;6.932;2023-07-20T01:16:19;4.33;;;2.60;;
7340;SDS011;6870;50.944;6.932;2023-07-20T01:18:47;8.47;;;3.33;;
7340;SDS011;6870;50.944;6.932;2023-07-20T01:21:18;4.63;;;2.70;;
7340;SDS011;6870;50.944;6.932;2023-07-20T01:23:58;3.23;;;2.70;;
7340;SDS011;6870;50.944;6.932;2023-07-20T01:27:00;5.50;;;2.50;;
7340;SDS011;6870;50.944;6.932;2023-07-20T01:29:55;8.00;;;2.97;;
7340;SDS011;6870;50.944;6.932;2023-07-20T01:32:41;5.60;;;2.50;;
7340;SDS011;6870;50.944;6.932;2023-07-20T01:35:11;6.13;;;2.77;;
7340;SDS011;6870;50.944;6.932;2023-07-20T01:37:41;4.40;;;2.47;;
7340;SDS011;6870;50.944;6.932;2023-07-20T01:40:12;6.30;;;2.50;;
7340;SDS011;6870;50.944;6.932;2023-07-20T01:42:45;3.00;;;2.17;;
7340;SDS011;6870;50.944;6.932;2023-07-20T01:45:13;3.27;;;2.10;;
7340;SDS011;6870;50.944;6.932;2023-07-20T01:47:43;8.63;;;2.90;;
7340;SDS011;6870;50.944;6.932;2023-07-20T01:50:11;7.30;;;2.23;;
7340;SDS011;6870;50.944;6.932;2023-07-20T01:52:39;4.43;;;2.60;;
7340;SDS011;6870;50.944;6.932;2023-07-20T01:55:08;4.03;;;2.33;;
7340;SDS011;6870;50.944;6.932;2023-07-20T01:57:37;3.83;;;2.33;;
7340;SDS011;6870;50.944;6.932;2023-07-20T02:00:05;4.00;;;2.40;;
7340;SDS011;6870;50.944;6.932;2023-07-20T02:02:35;5.40;;;2.50;;
7340;SDS011;6870;50.944;6.932;2023-07-20T02:05:05;3.60;;;2.03;;
7340;SDS011;6870;50.944;6.932;2023-07-20T02:07:34;3.97;;;2.30;;
7340;SDS011;6870;50.944;6.932;2023-07-20T02:10:02;2.87;;;2.17;;
7340;SDS011;6870;50.944;6.932;2023-07-20T02:12:31;3.47;;;2.30;;
7340;SDS011;6870;50.944;6.932;2023-07-20T02:14:59;4.03;;;2.37;;
7340;SDS011;6870;50.944;6.932;2023-07-20T02:17:28;2.87;;;1.77;;
7340;SDS011;6870;50.944;6.932;2023-07-20T02:19:56;2.63;;;2.10;;
7340;SDS011;6870;50.944;6.932;2023-07-20T02:22:26;3.20;;;2.23;;
7340;SDS011;6870;50.944;6.932;2023-07-20T02:24:54;6.33;;;2.67;;
7340;SDS011;6870;50.944;6.932;2023-07-20T02:27:22;3.90;;;1.90;;
7340;SDS011;6870;50.944;6.932;2023-07-20T02:29:50;3.30;;;2.10;;
7340;SDS011;6870;50.944;6.932;2023-07-20T02:32:18;4.17;;;2.40;;
7340;SDS011;6870;50.944;6.932;2023-07-20T02:34:46;3.70;;;2.13;;
7340;SDS011;6870;50.944;6.932;2023-07-20T02:37:14;2.60;;;2.30;;
7340;SDS011;6870;50.944;6.932;2023-07-20T02:39:44;3.30;;;2.53;;
7340;SDS011;6870;50.944;6.932;2023-07-20T02:42:12;3.40;;;2.17;;
7340;SDS011;6870;50.944;6.932;2023-07-20T02:44:40;6.40;;;2.07;;
7340;SDS011;6870;50.944;6.932;2023-07-20T02:47:09;5.70;;;2.60;;
7340;SDS011;6870;50.944;6.932;2023-07-20T02:49:37;7.13;;;2.77;;
7340;SDS011;6870;50.944;6.932;2023-07-20T02:52:05;2.63;;;1.97;;
7340;SDS011;6870;50.944;6.932;2023-07-20T02:54:34;4.60;;;2.67;;
7340;SDS011;6870;50.944;6.932;2023-07-20T02:57:03;3.63;;;2.70;;
7340;SDS011;6870;50.944;6.932;2023-07-20T02:59:32;4.03;;;2.47;;
7340;SDS011;6870;50.944;6.932;2023-07-20T03:02:00;4.67;;;2.63;;
7340;SDS011;6870;50.944;6.932;2023-07-20T03:04:28;3.27;;;2.33;;
7340;SDS011;6870;50.944;6.932;2023-07-20T03:06:56;3.50;;;2.27;;
7340;SDS011;6870;50.944;6.932;2023-07-20T03:09:26;4.37;;;2.67;;
7340;SDS011;6870;50.944;6.932;2023-07-20T03:11:54;5.97;;;2.27;;
7340;SDS011;6870;50.944;6.932;2023-07-20T03:14:23;4.20;;;2.37;;
7340;SDS011;6870;50.944;6.932;2023-07-20T03:16:51;2.90;;;2.10;;
7340;SDS011;6870;50.944;6.932;2023-07-20T03:19:19;5.77;;;2.90;;
7340;SDS011;6870;50.944;6.932;2023-07-20T03:21:48;2.70;;;2.30;;
7340;SDS011;6870;50.944;6.932;2023-07-20T03:24:16;5.10;;;2.50;;
7340;SDS011;6870;50.944;6.932;2023-07-20T03:26:44;5.60;;;2.67;;
7340;SDS011;6870;50.944;6.932;2023-07-20T03:29:12;2.20;;;1.83;;
7340;SDS011;6870;50.944;6.932;2023-07-20T03:31:43;3.30;;;2.17;;
7340;SDS011;6870;50.944;6.932;2023-07-20T03:34:11;7.60;;;2.60;;
7340;SDS011;6870;50.944;6.932;2023-07-20T03:36:41;2.47;;;2.13;;
7340;SDS011;6870;50.944;6.932;2023-07-20T03:39:09;3.97;;;2.10;;
7340;SDS011;6870;50.944;6.932;2023-07-20T03:41:37;4.87;;;2.30;;
7340;SDS011;6870;50.944;6.932;2023-07-20T03:44:05;2.47;;;1.90;;
7340;SDS011;6870;50.944;6.932;2023-07-20T03:46:34;6.70;;;2.37;;
7340;SDS011;6870;50.944;6.932;2023-07-20T03:49:03;4.60;;;2.40;;
7340;SDS011;6870;50.944;6.932;2023-07-20T03:51:32;5.23;;;2.20;;
7340;SDS011;6870;50.944;6.932;2023-07-20T03:54:00;8.00;;;2.10;;
7340;SDS011;6870;50.944;6.932;2023-07-20T03:56:28;2.60;;;2.17;;
7340;SDS011;6870;50.944;6.932;2023-07-20T03:59:00;5.17;;;2.43;;
7340;SDS011;6870;50.944;6.932;2023-07-20T04:01:28;4.30;;;2.07;;
7340;SDS011;6870;50.944;6.932;2023-07-20T04:04:06;3.73;;;2.13;;
7340;SDS011;6870;50.944;6.932;2023-07-20T04:06:35;4.40;;;2.57;;
7340;SDS011;6870;50.944;6.932;2023-07-20T04:09:03;2.83;;;1.87;;
7340;SDS011;6870;50.944;6.932;2023-07-20T04:11:32;3.00;;;2.03;;
7340;SDS011;6870;50.944;6.932;2023-07-20T04:14:00;4.17;;;2.60;;
7340;SDS011;6870;50.944;6.932;2023-07-20T04:16:28;2.60;;;2.00;;
7340;SDS011;6870;50.944;6.932;2023-07-20T04:18:56;1.90;;;1.50;;
7340;SDS011;6870;50.944;6.932;2023-07-20T04:21:26;4.03;;;2.40;;
7340;SDS011;6870;50.944;6.932;2023-07-20T04:23:55;3.90;;;2.00;;
7340;SDS011;6870;50.944;6.932;2023-07-20T04:26:23;2.70;;;2.30;;
7340;SDS011;6870;50.944;6.932;2023-07-20T04:28:51;4.33;;;2.07;;
7340;SDS011;6870;50.944;6.932;2023-07-20T04:31:19;4.30;;;2.40;;
7340;SDS011;6870;50.944;6.932;2023-07-20T04:33:47;5.30;;;2.50;;
7340;SDS011;6870;50.944;6.932;2023-07-20T04:36:16;3.57;;;1.87;;
7340;SDS011;6870;50.944;6.932;2023-07-20T04:38:47;4.70;;;1.97;;
7340;SDS011;6870;50.944;6.932;2023-07-20T04:41:16;4.33;;;2.13;;
7340;SDS011;6870;50.944;6.932;2023-07-20T04:43:44;4.33;;;2.03;;
7340;SDS011;6870;50.944;6.932;2023-07-20T04:46:12;3.70;;;2.03;;
7340;SDS011;6870;50.944;6.932;2023-07-20T04:48:40;3.80;;;2.70;;
7340;SDS011;6870;50.944;6.932;2023-07-20T04:51:08;5.73;;;2.30;;
7340;SDS011;6870;50.944;6.932;2023-07-20T04:53:37;4.60;;;1.87;;
7340;SDS011;6870;50.944;6.932;2023-07-20T04:56:06;3.17;;;2.20;;
7340;SDS011;6870;50.944;6.932;2023-07-20T04:58:35;3.50;;;2.00;;
7340;SDS011;6870;50.944;6.932;2023-07-20T05:01:03;2.83;;;1.83;;
7340;SDS011;6870;50.944;6.932;2023-07-20T05:03:31;2.50;;;1.80;;
7340;SDS011;6870;50.944;6.932;2023-07-20T05:06:00;4.10;;;2.50;;
7340;SDS011;6870;50.944;6.932;2023-07-20T05:08:28;4.00;;;2.03;;
7340;SDS011;6870;50.944;6.932;2023-07-20T05:10:56;4.33;;;2.30;;
7340;SDS011;6870;50.944;6.932;2023-07-20T05:13:26;3.13;;;2.20;;
7340;SDS011;6870;50.944;6.932;2023-07-20T05:15:54;4.47;;;2.23;;
7340;SDS011;6870;50.944;6.932;2023-07-20T05:18:22;4.20;;;1.90;;
7340;SDS011;6870;50.944;6.932;2023-07-20T05:20:50;2.00;;;1.70;;
7340;SDS011;6870;50.944;6.932;2023-07-20T05:23:19;4.07;;;2.00;;
7340;SDS011;6870;50.944;6.932;2023-07-20T05:25:47;3.73;;;2.10;;
7340;SDS011;6870;50.944;6.932;2023-07-20T05:28:21;4.33;;;2.37;;
7340;SDS011;6870;50.944;6.932;2023-07-20T05:30:51;3.93;;;1.93;;
7340;SDS011;6870;50.944;6.932;2023-07-20T05:33:19;2.50;;;1.80;;
7340;SDS011;6870;50.944;6.932;2023-07-20T05:35:48;16.23;;;3.40;;
7340;SDS011;6870;50.944;6.932;2023-07-20T05:38:16;3.80;;;1.90;;
7340;SDS011;6870;50.944;6.932;2023-07-20T05:40:45;4.20;;;2.60;;
7340;SDS011;6870;50.944;6.932;2023-07-20T05:43:14;5.80;;;2.30;;
7340;SDS011;6870;50.944;6.932;2023-07-20T05:45:42;5.13;;;3.40;;
7340;SDS011;6870;50.944;6.932;2023-07-20T05:48:12;5.17;;;3.00;;
7340;SDS011;6870;50.944;6.932;2023-07-20T05:50:41;10.40;;;3.17;;
7340;SDS011;6870;50.944;6.932;2023-07-20T05:53:10;3.63;;;2.50;;
7340;SDS011;6870;50.944;6.932;2023-07-20T05:55:38;3.77;;;2.57;;
7340;SDS011;6870;50.944;6.932;2023-07-20T05:58:07;5.50;;;2.73;;
7340;SDS011;6870;50.944;6.932;2023-07-20T06:00:35;4.63;;;3.70;;
7340;SDS011;6870;50.944;6.932;2023-07-20T06:03:03;10.73;;;5.10;;
7340;SDS011;6870;50.944;6.932;2023-07-20T06:05:32;9.97;;;4.60;;
7340;SDS011;6870;50.944;6.932;2023-07-20T06:08:00;8.77;;;4.83;;
7340;SDS011;6870;50.944;6.932;2023-07-20T06:10:28;6.60;;;3.97;;
7340;SDS011;6870;50.944;6.932;2023-07-20T06:12:56;7.80;;;4.30;;
7340;SDS011;6870;50.944;6.932;2023-07-20T06:15:25;8.37;;;5.80;;
7340;SDS011;6870;50.944;6.932;2023-07-20T06:17:54;9.03;;;4.70;;
7340;SDS011;6870;50.944;6.932;2023-07-20T06:20:24;6.53;;;4.93;;
7340;SDS011;6870;50.944;6.932;2023-07-20T06:22:54;8.93;;;4.67;;
7340;SDS011;6870;50.944;6.932;2023-07-20T06:25:22;6.80;;;4.57;;
7340;SDS011;6870;50.944;6.932;2023-07-20T06:27:50;6.67;;;5.03;;
7340;SDS011;6870;50.944;6.932;2023-07-20T06:30:19;9.10;;;5.80;;
7340;SDS011;6870;50.944;6.932;2023-07-20T06:32:48;8.67;;;4.80;;
7340;SDS011;6870;50.944;6.932;2023-07-20T06:35:16;6.40;;;4.40;;
7340;SDS011;6870;50.944;6.932;2023-07-20T06:37:45;11.30;;;4.30;;
7340;SDS011;6870;50.944;6.932;2023-07-20T06:40:14;7.63;;;4.37;;
7340;SDS011;6870;50.944;6.932;2023-07-20T06:42:45;5.97;;;4.07;;
7340;SDS011;6870;50.944;6.932;2023-07-20T06:45:16;5.13;;;4.50;;
7340;SDS011;6870;50.944;6.932;2023-07-20T06:47:44;7.73;;;5.40;;
7340;SDS011;6870;50.944;6.932;2023-07-20T06:50:12;6.70;;;4.40;;
7340;SDS011;6870;50.944;6.932;2023-07-20T06:52:43;8.00;;;5.57;;
7340;SDS011;6870;50.944;6.932;2023-07-20T06:55:15;9.07;;;5.20;;
7340;SDS011;6870;50.944;6.932;2023-07-20T06:57:49;5.83;;;4.87;;
7340;SDS011;6870;50.944;6.932;2023-07-20T07:00:18;7.33;;;5.13;;
7340;SDS011;6870;50.944;6.932;2023-07-20T07:02:47;6.03;;;3.67;;
7340;SDS011;6870;50.944;6.932;2023-07-20T07:05:16;5.50;;;3.60;;
7340;SDS011;6870;50.944;6.932;2023-07-20T07:07:47;6.23;;;4.43;;
7340;SDS011;6870;50.944;6.932;2023-07-20T07:10:16;6.50;;;3.77;;
7340;SDS011;6870;50.944;6.932;2023-07-20T07:12:44;5.23;;;3.57;;
7340;SDS011;6870;50.944;6.932;2023-07-20T07:15:13;9.03;;;3.90;;
7340;SDS011;6870;50.944;6.932;2023-07-20T07:17:42;3.80;;;2.70;;
7340;SDS011;6870;50.944;6.932;2023-07-20T07:20:10;8.30;;;3.03;;
7340;SDS011;6870;50.944;6.932;2023-07-20T07:22:47;6.60;;;2.80;;
7340;SDS011;6870;50.944;6.932;2023-07-20T07:25:17;4.47;;;3.20;;
7340;SDS011;6870;50.944;6.932;2023-07-20T07:27:49;5.10;;;4.03;;
7340;SDS011;6870;50.944;6.932;2023-07-20T07:30:18;5.23;;;4.10;;
7340;SDS011;6870;50.944;6.932;2023-07-20T07:32:47;5.90;;;4.00;;
7340;SDS011;6870;50.944;6.932;2023-07-20T07:35:16;6.93;;;4.37;;
7340;SDS011;6870;50.944;6.932;2023-07-20T07:37:44;5.73;;;4.30;;
7340;SDS011;6870;50.944;6.932;2023-07-20T07:40:34;10.63;;;5.03;;
7340;SDS011;6870;50.944;6.932;2023-07-20T07:43:02;5.40;;;3.90;;
7340;SDS011;6870;50.944;6.932;2023-07-20T07:45:30;5.33;;;3.80;;
7340;SDS011;6870;50.944;6.932;2023-07-20T07:48:01;3.73;;;3.43;;
7340;SDS011;6870;50.944;6.932;2023-07-20T07:50:30;7.60;;;3.23;;
7340;SDS011;6870;50.944;6.932;2023-07-20T07:52:58;6.80;;;3.87;;
7340;SDS011;6870;50.944;6.932;2023-07-20T07:55:26;4.27;;;3.20;;
7340;SDS011;6870;50.944;6.932;2023-07-20T07:57:56;3.77;;;3.00;;
7340;SDS011;6870;50.944;6.932;2023-07-20T08:00:24;6.90;;;3.50;;
7340;SDS011;6870;50.944;6.932;2023-07-20T08:02:53;4.93;;;3.40;;
7340;SDS011;6870;50.944;6.932;2023-07-20T08:05:21;3.53;;;2.70;;
7340;SDS011;6870;50.944;6.932;2023-07-20T08:07:50;4.70;;;2.73;;
7340;SDS011;6870;50.944;6.932;2023-07-20T08:10:18;7.27;;;3.53;;
7340;SDS011;6870;50.944;6.932;2023-07-20T08:12:46;3.77;;;3.27;;
7340;SDS011;6870;50.944;6.932;2023-07-20T08:15:16;4.70;;;2.90;;
7340;SDS011;6870;50.944;6.932;2023-07-20T08:17:44;6.70;;;3.00;;
7340;SDS011;6870;50.944;6.932;2023-07-20T08:20:12;6.30;;;3.27;;
7340;SDS011;6870;50.944;6.932;2023-07-20T08:22:42;4.00;;;2.90;;
7340;SDS011;6870;50.944;6.932;2023-07-20T08:25:14;6.10;;;2.90;;
7340;SDS011;6870;50.944;6.932;2023-07-20T08:27:42;5.77;;;2.47;;
7340;SDS011;6870;50.944;6.932;2023-07-20T08:30:12;5.87;;;2.73;;
7340;SDS011;6870;50.944;6.932;2023-07-20T08:32:42;3.10;;;2.57;;
7340;SDS011;6870;50.944;6.932;2023-07-20T08:35:10;2.80;;;2.60;;
7340;SDS011;6870;50.944;6.932;2023-07-20T08:37:41;4.13;;;2.53;;
7340;SDS011;6870;50.944;6.932;2023-07-20T08:40:09;5.33;;;2.80;;
7340;SDS011;6870;50.944;6.932;2023-07-20T08:42:39;4.77;;;2.90;;
7340;SDS011;6870;50.944;6.932;2023-07-20T08:45:08;5.47;;;2.80;;
7340;SDS011;6870;50.944;6.932;2023-07-20T08:47:37;2.90;;;2.17;;
7340;SDS011;6870;50.944;6.932;2023-07-20T08:50:07;4.93;;;2.13;;
7340;SDS011;6870;50.944;6.932;2023-07-20T08:52:36;3.63;;;2.50;;
7340;SDS011;6870;50.944;6.932;2023-07-20T08:55:04;5.40;;;3.20;;
7340;SDS011;6870;50.944;6.932;2023-07-20T08:57:33;3.53;;;2.37;;
7340;SDS011;6870;50.944;6.932;2023-07-20T09:00:03;2.97;;;1.90;;
7340;SDS011;6870;50.944;6.932;2023-07-20T09:02:36;3.17;;;1.97;;
7340;SDS011;6870;50.944;6.932;2023-07-20T09:05:09;2.73;;;2.00;;
7340;SDS011;6870;50.944;6.932;2023-07-20T09:07:38;2.70;;;2.17;;
7340;SDS011;6870;50.944;6.932;2023-07-20T09:10:07;4.37;;;2.17;;
7340;SDS011;6870;50.944;6.932;2023-07-20T09:12:37;6.27;;;2.03;;
7340;SDS011;6870;50.944;6.932;2023-07-20T09:15:07;2.77;;;2.30;;
7340;SDS011;6870;50.944;6.932;2023-07-20T09:17:37;3.60;;;2.23;;
7340;SDS011;6870;50.944;6.932;2023-07-20T09:20:06;2.33;;;1.77;;
7340;SDS011;6870;50.944;6.932;2023-07-20T09:22:37;4.43;;;2.10;;
7340;SDS011;6870;50.944;6.932;2023-07-20T09:25:07;3.30;;;2.10;;
7340;SDS011;6870;50.944;6.932;2023-07-20T09:27:39;2.67;;;2.07;;
7340;SDS011;6870;50.944;6.932;2023-07-20T09:30:10;2.73;;;2.27;;
7340;SDS011;6870;50.944;6.932;2023-07-20T09:32:44;3.60;;;2.30;;
7340;SDS011;6870;50.944;6.932;2023-07-20T09:35:18;5.00;;;2.40;;
7340;SDS011;6870;50.944;6.932;2023-07-20T09:37:50;2.97;;;1.87;;
7340;SDS011;6870;50.944;6.932;2023-07-20T09:40:25;2.57;;;2.37;;
7340;SDS011;6870;50.944;6.932;2023-07-20T09:42:58;2.60;;;1.80;;
7340;SDS011;6870;50.944;6.932;2023-07-20T09:45:30;1.97;;;1.60;;
7340;SDS011;6870;50.944;6.932;2023-07-20T09:48:03;3.03;;;2.20;;
7340;SDS011;6870;50.944;6.932;2023-07-20T09:50:40;1.90;;;1.60;;
7340;SDS011;6870;50.944;6.932;2023-07-20T09:53:11;3.70;;;2.00;;
7340;SDS011;6870;50.944;6.932;2023-07-20T09:55:40;2.30;;;2.07;;
7340;SDS011;6870;50.944;6.932;2023-07-20T09:58:09;3.37;;;1.70;;
7340;SDS011;6870;50.944;6.932;2023-07-20T10:00:38;3.17;;;2.00;;
7340;SDS011;6870;50.944;6.932;2023-07-20T10:03:13;2.17;;;1.77;;
7340;SDS011;6870;50.944;6.932;2023-07-20T10:05:47;2.40;;;1.80;;
7340;SDS011;6870;50.944;6.932;2023-07-20T10:08:20;2.37;;;1.60;;
7340;SDS011;6870;50.944;6.932;2023-07-20T10:10:54;2.30;;;2.10;;
7340;SDS011;6870;50.944;6.932;2023-07-20T10:13:25;1.87;;;1.67;;
7340;SDS011;6870;50.944;6.932;2023-07-20T10:15:56;3.73;;;2.00;;
7340;SDS011;6870;50.944;6.932;2023-07-20T10:18:30;2.80;;;1.83;;
7340;SDS011;6870;50.944;6.932;2023-07-20T10:21:04;2.70;;;1.90;;
7340;SDS011;6870;50.944;6.932;2023-07-20T10:23:37;4.00;;;1.70;;
7340;SDS011;6870;50.944;6.932;2023-07-20T10:26:06;5.40;;;2.17;;
7340;SDS011;6870;50.944;6.932;2023-07-20T10:28:35;4.50;;;2.27;;
7340;SDS011;6870;50.944;6.932;2023-07-20T10:31:04;11.20;;;2.60;;
7340;SDS011;6870;50.944;6.932;2023-07-20T10:33:32;19.93;;;3.43;;
7340;SDS011;6870;50.944;6.932;2023-07-20T10:36:01;7.20;;;2.20;;
7340;SDS011;6870;50.944;6.932;2023-07-20T10:38:39;8.20;;;2.30;;
7340;SDS011;6870;50.944;6.932;2023-07-20T10:41:18;7.27;;;1.70;;
7340;SDS011;6870;50.944;6.932;2023-07-20T10:43:48;7.73;;;2.10;;
7340;SDS011;6870;50.944;6.932;2023-07-20T10:49:12;5.27;;;2.80;;
7340;SDS011;6870;50.944;6.932;2023-07-20T10:51:42;8.00;;;1.87;;
7340;SDS011;6870;50.944;6.932;2023-07-20T10:57:21;3.13;;;1.93;;
7340;SDS011;6870;50.944;6.932;2023-07-20T10:59:52;2.47;;;1.60;;
7340;SDS011;6870;50.944;6.932;2023-07-20T11:02:46;5.03;;;1.93;;
7340;SDS011;6870;50.944;6.932;2023-07-20T11:05:36;6.37;;;1.60;;
7340;SDS011;6870;50.944;6.932;2023-07-20T11:08:09;4.63;;;1.60;;
7340;SDS011;6870;50.944;6.932;2023-07-20T11:10:40;3.07;;;2.40;;
7340;SDS011;6870;50.944;6.932;2023-07-20T11:13:18;2.40;;;1.53;;
7340;SDS011;6870;50.944;6.932;2023-07-20T11:16:01;4.53;;;1.80;;
7340;SDS011;6870;50.944;6.932;2023-07-20T11:18:33;2.67;;;1.47;;
7340;SDS011;6870;50.944;6.932;2023-07-20T11:21:07;2.67;;;1.50;;
7340;SDS011;6870;50.944;6.932;2023-07-20T11:23:37;10.40;;;2.00;;
7340;SDS011;6870;50.944;6.932;2023-07-20T11:26:07;5.60;;;1.53;;
7340;SDS011;6870;50.944;6.932;2023-07-20T11:28:36;2.13;;;1.50;;
7340;SDS011;6870;50.944;6.932;2023-07-20T11:31:04;2.87;;;1.67;;
7340;SDS011;6870;50.944;6.932;2023-07-20T11:33:32;2.53;;;1.50;;
7340;SDS011;6870;50.944;6.932;2023-07-20T11:36:00;2.57;;;1.50;;
7340;SDS011;6870;50.944;6.932;2023-07-20T11:38:48;2.30;;;1.53;;
7340;SDS011;6870;50.944;6.932;2023-07-20T11:41:18;2.73;;;1.60;;
7340;SDS011;6870;50.944;6.932;2023-07-20T11:43:47;7.03;;;1.80;;
7340;SDS011;6870;50.944;6.932;2023-07-20T11:46:15;1.50;;;1.00;;
7340;SDS011;6870;50.944;6.932;2023-07-20T11:48:43;2.63;;;1.40;;
7340;SDS011;6870;50.944;6.932;2023-07-20T11:51:15;2.07;;;1.23;;
7340;SDS011;6870;50.944;6.932;2023-07-20T11:53:44;2.37;;;1.43;;
7340;SDS011;6870;50.944;6.932;2023-07-20T11:56:13;2.70;;;1.07;;
7340;SDS011;6870;50.944;6.932;2023-07-20T11:58:43;2.13;;;1.40;;
7340;SDS011;6870;50.944;6.932;2023-07-20T12:01:12;3.00;;;1.60;;
7340;SDS011;6870;50.944;6.932;2023-07-20T12:03:41;3.10;;;1.07;;
7340;SDS011;6870;50.944;6.932;2023-07-20T12:06:10;2.27;;;1.90;;
7340;SDS011;6870;50.944;6.932;2023-07-20T12:08:41;1.83;;;1.50;;
7340;SDS011;6870;50.944;6.932;2023-07-20T12:11:10;2.73;;;1.40;;
7340;SDS011;6870;50.944;6.932;2023-07-20T12:13:38;4.40;;;2.33;;
7340;SDS011;6870;50.944;6.932;2023-07-20T12:16:12;1.90;;;1.60;;
7340;SDS011;6870;50.944;6.932;2023-07-20T12:18:42;3.40;;;1.70;;
7340;SDS011;6870;50.944;6.932;2023-07-20T12:21:11;2.83;;;1.80;;
7340;SDS011;6870;50.944;6.932;2023-07-20T12:23:39;3.77;;;1.80;;
7340;SDS011;6870;50.944;6.932;2023-07-20T12:26:09;2.30;;;1.13;;
7340;SDS011;6870;50.944;6.932;2023-07-20T12:28:41;3.07;;;1.93;;
7340;SDS011;6870;50.944;6.932;2023-07-20T12:31:10;2.40;;;1.60;;
7340;SDS011;6870;50.944;6.932;2023-07-20T12:33:40;1.60;;;1.50;;
7340;SDS011;6870;50.944;6.932;2023-07-20T12:36:08;2.10;;;1.40;;
7340;SDS011;6870;50.944;6.932;2023-07-20T12:38:37;4.00;;;1.93;;
7340;SDS011;6870;50.944;6.932;2023-07-20T12:41:05;4.10;;;1.90;;
7340;SDS011;6870;50.944;6.932;2023-07-20T12:43:33;2.83;;;1.50;;
7340;SDS011;6870;50.944;6.932;2023-07-20T12:46:02;4.80;;;2.37;;
7340;SDS011;6870;50.944;6.932;2023-07-20T12:48:30;4.40;;;1.70;;
7340;SDS011;6870;50.944;6.932;2023-07-20T12:50:59;2.90;;;1.60;;
7340;SDS011;6870;50.944;6.932;2023-07-20T12:53:27;4.53;;;2.33;;
7340;SDS011;6870;50.944;6.932;2023-07-20T12:55:55;5.33;;;1.33;;
7340;SDS011;6870;50.944;6.932;2023-07-20T12:58:23;3.10;;;1.73;;
7340;SDS011;6870;50.944;6.932;2023-07-20T13:00:51;5.93;;;1.50;;
7340;SDS011;6870;50.944;6.932;2023-07-20T13:03:20;1.70;;;1.10;;
7340;SDS011;6870;50.944;6.932;2023-07-20T13:05:51;3.77;;;1.97;;
7340;SDS011;6870;50.944;6.932;2023-07-20T13:08:23;3.53;;;1.13;;
7340;SDS011;6870;50.944;6.932;2023-07-20T13:10:53;1.60;;;1.23;;
7340;SDS011;6870;50.944;6.932;2023-07-20T13:13:21;1.67;;;0.93;;
7340;SDS011;6870;50.944;6.932;2023-07-20T13:15:49;2.40;;;1.53;;
7340;SDS011;6870;50.944;6.932;2023-07-20T13:18:17;2.00;;;1.50;;
7340;SDS011;6870;50.944;6.932;2023-07-20T13:20:47;2.20;;;1.40;;
7340;SDS011;6870;50.944;6.932;2023-07-20T13:23:15;2.80;;;1.33;;
7340;SDS011;6870;50.944;6.932;2023-07-20T13:25:43;2.47;;;1.13;;
7340;SDS011;6870;50.944;6.932;2023-07-20T13:28:11;1.47;;;1.10;;
7340;SDS011;6870;50.944;6.932;2023-07-20T13:30:39;2.87;;;1.33;;
7340;SDS011;6870;50.944;6.932;2023-07-20T13:33:07;3.40;;;1.50;;
7340;SDS011;6870;50.944;6.932;2023-07-20T13:35:39;2.03;;;1.27;;
7340;SDS011;6870;50.944;6.932;2023-07-20T13:38:12;1.80;;;1.10;;
7340;SDS011;6870;50.944;6.932;2023-07-20T13:40:40;2.90;;;1.43;;
7340;SDS011;6870;50.944;6.932;2023-07-20T13:43:09;1.53;;;1.00;;
7340;SDS011;6870;50.944;6.932;2023-07-20T13:45:38;2.43;;;1.40;;
7340;SDS011;6870;50.944;6.932;2023-07-20T13:48:06;2.70;;;1.37;;
7340;SDS011;6870;50.944;6.932;2023-07-20T13:50:35;6.10;;;1.70;;
7340;SDS011;6870;50.944;6.932;2023-07-20T13:53:08;2.90;;;1.80;;
7340;SDS011;6870;50.944;6.932;2023-07-20T13:55:40;1.60;;;1.30;;
7340;SDS011;6870;50.944;6.932;2023-07-20T13:58:11;3.00;;;1.03;;
7340;SDS011;6870;50.944;6.932;2023-07-20T14:00:39;3.40;;;1.20;;
7340;SDS011;6870;50.944;6.932;2023-07-20T14:03:07;4.73;;;1.50;;
7340;SDS011;6870;50.944;6.932;2023-07-20T14:05:39;2.93;;;1.77;;
7340;SDS011;6870;50.944;6.932;2023-07-20T14:08:10;8.23;;;1.60;;
7340;SDS011;6870;50.944;6.932;2023-07-20T14:10:39;4.47;;;1.67;;
7340;SDS011;6870;50.944;6.932;2023-07-20T14:13:10;1.90;;;1.23;;
7340;SDS011;6870;50.944;6.932;2023-07-20T14:15:38;6.10;;;1.30;;
7340;SDS011;6870;50.944;6.932;2023-07-20T14:18:07;2.17;;;1.17;;
7340;SDS011;6870;50.944;6.932;2023-07-20T14:20:35;4.30;;;1.10;;
7340;SDS011;6870;50.944;6.932;2023-07-20T14:23:05;5.20;;;1.40;;
7340;SDS011;6870;50.944;6.932;2023-07-20T14:25:33;3.20;;;1.87;;
7340;SDS011;6870;50.944;6.932;2023-07-20T14:28:05;2.10;;;1.07;;
7340;SDS011;6870;50.944;6.932;2023-07-20T14:30:33;2.87;;;1.10;;
7340;SDS011;6870;50.944;6.932;2023-07-20T14:33:01;3.10;;;1.60;;
7340;SDS011;6870;50.944;6.932;2023-07-20T14:35:29;1.93;;;1.20;;
7340;SDS011;6870;50.944;6.932;2023-07-20T14:37:57;8.60;;;1.53;;
7340;SDS011;6870;50.944;6.932;2023-07-20T14:40:25;1.83;;;1.50;;
7340;SDS011;6870;50.944;6.932;2023-07-20T14:42:54;4.40;;;1.70;;
7340;SDS011;6870;50.944;6.932;2023-07-20T14:45:24;4.43;;;1.30;;
7340;SDS011;6870;50.944;6.932;2023-07-20T14:47:52;2.60;;;1.57;;
7340;SDS011;6870;50.944;6.932;2023-07-20T14:50:21;2.10;;;1.37;;
7340;SDS011;6870;50.944;6.932;2023-07-20T14:52:49;4.27;;;1.50;;
7340;SDS011;6870;50.944;6.932;2023-07-20T14:55:17;1.53;;;1.17;;
7340;SDS011;6870;50.944;6.932;2023-07-20T14:57:45;4.20;;;1.10;;
7340;SDS011;6870;50.944;6.932;2023-07-20T15:00:15;2.13;;;1.30;;
7340;SDS011;6870;50.944;6.932;2023-07-20T15:02:45;2.13;;;1.20;;
7340;SDS011;6870;50.944;6.932;2023-07-20T15:05:19;1.60;;;0.90;;
7340;SDS011;6870;50.944;6.932;2023-07-20T15:07:48;2.30;;;1.40;;
7340;SDS011;6870;50.944;6.932;2023-07-20T15:10:17;1.97;;;1.30;;
7340;SDS011;6870;50.944;6.932;2023-07-20T15:12:45;1.93;;;1.00;;
7340;SDS011;6870;50.944;6.932;2023-07-20T15:15:14;1.83;;;0.80;;
7340;SDS011;6870;50.944;6.932;2023-07-20T15:17:44;1.87;;;1.20;;
7340;SDS011;6870;50.944;6.932;2023-07-20T15:20:12;2.40;;;1.30;;
7340;SDS011;6870;50.944;6.932;2023-07-20T15:22:41;2.50;;;1.40;;
7340;SDS011;6870;50.944;6.932;2023-07-20T15:25:11;1.67;;;1.03;;
7340;SDS011;6870;50.944;6.932;2023-07-20T15:27:39;2.60;;;1.10;;
7340;SDS011;6870;50.944;6.932;2023-07-20T15:30:16;2.80;;;1.13;;
7340;SDS011;6870;50.944;6.932;2023-07-20T15:32:49;2.83;;;1.13;;
7340;SDS011;6870;50.944;6.932;2023-07-20T15:35:20;1.80;;;0.67;;
7340;SDS011;6870;50.944;6.932;2023-07-20T15:37:48;1.63;;;0.90;;